Ana Sayfa
METAR-TAF:

METAR-TAF

Havaalanları :

Brookhaven Airport

Shirley, New York, Amerika Birleşik Devletleri

Enlem: 40-49-18N, Boylam: 072-52-08W, yükseklik: 25 m

Güncel hava durumu gözlemi

Rapor saat 18:56 UTC de 58 dakika önce yapıldı.
Rüzgar batı/kuzeybatıdan 10 kt
Sıcaklık 9°C
Nem 43%
Basınç 1026 hPa
Görüş mesafesi: 16.1 km
Açık gökyüzü

METAR: KHWV 241856Z AUTO 30010KT 10SM CLR 09/M03 A3030 RMK AO2 SLP261 T00941033

Saat: 14:54 (19:54 UTC)


TAF: eksik

4.000'den fazla havaalanı için hava durumu gözlemleri ve tahminleri (METAR ve TAF raporları).

Kullanılabilir istasyonlar harita üzerinde sarı ve kırmızı noktalarla gösterilir.

İstasyonun adını görmek için fareyi noktanın üzerinde gezdirin.

Sonrasında hava gözlem ve tahminlerini görmek için tıklayın.

Haritayı değiştirmek için: yaklaştırmak için siyah artı işaretli yeşil düğmeye ve uzaklaştırmak için de eksi işaretli düğmeye hızla tıklayın; bitişik haritalar için yeşil okları kullanın.


METAR-TAF: